Time;durP1;ratioP1;P1;durP2;ratioP2;P2;SDS_P1;SDS_P2;PMS_P1;PMS_P2;Temp;Humidity;BMP_temperature;BMP_pressure;BME280_temperature;BME280_humidity;BME280_pressure;Samples;Min_cycle;Max_cycle;Signal;HPM_P1;HPM_P2
2021/09/20 04:00:23;;;;;;;2.35;2.30;;;12.00;99.90;;;;;;5985743;23;20178;31
2021/09/20 04:02:49;;;;;;;3.00;2.80;;;12.00;99.90;;;;;;4925943;29;20238;-72
2021/09/20 04:05:16;;;;;;;3.35;3.15;;;12.00;99.90;;;;;;4927942;29;20239;-71
2021/09/20 04:07:43;;;;;;;2.65;2.50;;;12.00;99.90;;;;;;4927763;29;20206;-72
2021/09/20 04:10:11;;;;;;;2.45;2.35;;;12.00;99.90;;;;;;4924866;29;20214;-69
2021/09/20 04:12:38;;;;;;;3.13;2.92;;;12.00;99.90;;;;;;4916872;29;20222;-69
2021/09/20 04:15:06;;;;;;;3.40;3.20;;;11.90;99.90;;;;;;4916817;29;20566;-69
2021/09/20 04:17:34;;;;;;;2.50;2.40;;;11.90;99.90;;;;;;4916667;29;20199;-69
2021/09/20 04:20:00;;;;;;;2.95;2.75;;;11.90;99.90;;;;;;4916433;29;20742;-69
2021/09/20 04:22:27;;;;;;;2.75;2.58;;;11.90;99.90;;;;;;4915713;29;20289;-69
2021/09/20 04:24:54;;;;;;;3.05;2.88;;;11.90;99.90;;;;;;4917294;29;20230;-69
2021/09/20 04:27:21;;;;;;;3.42;2.88;;;11.90;99.90;;;;;;4916565;29;20199;-69
2021/09/20 04:29:48;;;;;;;3.47;3.28;;;11.90;99.90;;;;;;4916499;29;20211;-68
2021/09/20 04:32:15;;;;;;;3.33;3.10;;;11.90;99.90;;;;;;4916163;29;20226;-71
2021/09/20 04:34:43;;;;;;;3.33;3.13;;;11.90;99.90;;;;;;4916753;29;20218;-71
2021/09/20 04:37:10;;;;;;;2.75;2.65;;;11.90;99.90;;;;;;4914379;29;20270;-71
2021/09/20 04:39:37;;;;;;;2.80;2.70;;;11.90;99.90;;;;;;4898815;29;20207;-71
2021/09/20 04:42:04;;;;;;;2.95;2.85;;;11.90;99.90;;;;;;4916202;29;20711;-70
2021/09/20 04:44:31;;;;;;;3.10;2.90;;;11.90;99.90;;;;;;4916727;29;20203;-70
2021/09/20 04:46:57;;;;;;;4.15;3.20;;;11.90;99.90;;;;;;4915892;29;20257;-71
2021/09/20 04:49:24;;;;;;;3.10;3.00;;;11.90;99.90;;;;;;4916846;29;20210;-71
2021/09/20 04:51:52;;;;;;;3.25;3.15;;;11.90;99.90;;;;;;4916383;29;20544;-72
2021/09/20 04:54:19;;;;;;;2.83;2.70;;;11.80;99.90;;;;;;4916417;29;20587;-70
2021/09/20 04:56:45;;;;;;;3.50;3.30;;;11.80;99.90;;;;;;4916492;29;20215;-71
2021/09/20 04:59:12;;;;;;;2.88;2.78;;;11.80;99.90;;;;;;4916648;29;20223;-71
2021/09/20 05:01:39;;;;;;;2.90;2.70;;;11.80;99.90;;;;;;4915854;29;20289;-73
2021/09/20 05:04:06;;;;;;;3.33;3.22;;;11.80;99.90;;;;;;4916888;29;20261;-72
2021/09/20 05:06:33;;;;;;;3.00;2.90;;;11.80;99.90;;;;;;4915823;29;20559;-71
2021/09/20 05:09:02;;;;;;;4.63;3.10;;;11.80;99.90;;;;;;4916181;29;20262;-70
2021/09/20 05:11:29;;;;;;;3.20;3.00;;;11.90;99.90;;;;;;4915938;29;20321;-70
2021/09/20 05:13:56;;;;;;;3.55;3.35;;;11.90;99.90;;;;;;4916258;29;20210;-69
2021/09/20 05:16:22;;;;;;;2.80;2.70;;;11.80;99.90;;;;;;4915155;29;20620;-69
2021/09/20 05:18:49;;;;;;;3.25;3.15;;;11.80;99.90;;;;;;4916434;29;20750;-69
2021/09/20 05:21:16;;;;;;;3.45;3.25;;;11.90;99.90;;;;;;4915662;29;20802;-69
2021/09/20 05:23:43;;;;;;;3.85;3.65;;;11.90;99.90;;;;;;4915664;29;20330;-69
2021/09/20 05:26:12;;;;;;;3.40;3.10;;;11.80;99.90;;;;;;4915624;29;20285;-69
2021/09/20 05:28:38;;;;;;;4.63;3.70;;;11.80;99.90;;;;;;4914200;29;20202;-69
2021/09/20 05:31:05;;;;;;;3.30;3.10;;;11.90;99.90;;;;;;4914796;29;20234;-69
2021/09/20 05:33:34;;;;;;;3.55;3.35;;;11.90;99.90;;;;;;4915785;29;20199;-69
2021/09/20 05:36:01;;;;;;;3.22;3.13;;;11.90;99.90;;;;;;4915621;29;20214;-69
2021/09/20 05:38:28;;;;;;;3.92;3.65;;;11.90;99.90;;;;;;4915743;29;20207;-69
2021/09/20 05:40:55;;;;;;;3.50;3.30;;;11.90;99.90;;;;;;4915289;29;20222;-69
2021/09/20 05:43:23;;;;;;;3.63;3.40;;;11.90;99.90;;;;;;4915891;29;20603;-69
2021/09/20 05:45:49;;;;;;;3.58;3.33;;;11.90;99.90;;;;;;4914373;29;20277;-69
2021/09/20 05:48:18;;;;;;;3.13;2.92;;;11.90;99.90;;;;;;4914143;29;20250;-71
2021/09/20 05:50:46;;;;;;;3.10;3.00;;;11.90;99.90;;;;;;4913809;29;20679;-71
2021/09/20 05:53:13;;;;;;;3.92;3.63;;;11.90;99.90;;;;;;4915900;29;20203;-72
2021/09/20 05:55:39;;;;;;;3.13;3.03;;;12.00;99.90;;;;;;4920153;29;20280;-73
2021/09/20 05:58:06;;;;;;;2.85;2.75;;;11.90;99.90;;;;;;4919071;29;20253;-70
2021/09/20 06:00:34;;;;;;;3.17;3.05;;;12.00;99.90;;;;;;4913372;29;20501;-70
2021/09/20 06:03:02;;;;;;;3.63;3.40;;;12.00;99.90;;;;;;4913660;29;20691;-69
2021/09/20 06:05:30;;;;;;;3.38;3.17;;;12.00;99.90;;;;;;4914222;29;20611;-71
2021/09/20 06:07:56;;;;;;;3.10;3.00;;;12.10;99.90;;;;;;4914403;29;20321;-72
2021/09/20 06:10:23;;;;;;;3.67;3.55;;;12.10;99.90;;;;;;4915211;29;20717;-72
2021/09/20 06:12:50;;;;;;;3.50;3.30;;;12.10;99.90;;;;;;4915288;29;20613;-72
2021/09/20 06:15:16;;;;;;;3.80;3.67;;;12.10;99.90;;;;;;4915006;29;20314;-72
2021/09/20 06:17:44;;;;;;;3.83;3.08;;;12.20;99.90;;;;;;4908414;29;20210;-72
2021/09/20 06:20:11;;;;;;;3.38;3.28;;;12.20;99.90;;;;;;4915706;29;20298;-72
2021/09/20 06:22:38;;;;;;;3.33;3.13;;;12.30;99.90;;;;;;4914917;29;20269;-71
2021/09/20 06:25:07;;;;;;;3.90;3.70;;;12.30;99.90;;;;;;4915477;29;20223;-71
2021/09/20 06:27:34;;;;;;;3.90;3.60;;;12.30;99.90;;;;;;4908265;29;20222;-72
2021/09/20 06:30:00;;;;;;;3.75;3.55;;;12.30;99.90;;;;;;4915287;29;20270;-72
2021/09/20 06:32:27;;;;;;;3.60;3.40;;;12.30;99.90;;;;;;4913943;29;20222;-72
2021/09/20 06:34:55;;;;;;;4.68;3.95;;;12.30;99.90;;;;;;4915609;29;20270;-72
2021/09/20 06:37:22;;;;;;;3.92;3.63;;;12.30;99.90;;;;;;4915034;29;20245;-72
2021/09/20 06:39:49;;;;;;;3.35;3.10;;;12.30;99.90;;;;;;4915161;29;20293;-73
2021/09/20 06:42:15;;;;;;;3.33;3.00;;;12.30;99.90;;;;;;4915079;29;20233;-73
2021/09/20 06:44:42;;;;;;;3.33;3.10;;;12.40;99.90;;;;;;4917989;29;20675;-70
2021/09/20 06:47:09;;;;;;;4.40;3.00;;;12.40;99.90;;;;;;4918668;29;20277;-73
2021/09/20 06:49:36;;;;;;;3.90;3.60;;;12.40;99.90;;;;;;4904899;29;20274;-72
2021/09/20 06:52:04;;;;;;;3.33;3.15;;;12.40;99.90;;;;;;4913810;29;20482;-70
2021/09/20 06:54:31;;;;;;;3.75;3.50;;;12.40;99.90;;;;;;4918760;29;20210;-72
2021/09/20 06:56:58;;;;;;;3.30;3.20;;;12.40;99.90;;;;;;4918332;29;20206;-72
2021/09/20 06:59:24;;;;;;;3.67;3.47;;;12.40;99.90;;;;;;4919517;29;20219;-72
2021/09/20 07:01:51;;;;;;;3.63;3.30;;;12.40;99.90;;;;;;4917282;29;20986;-73
2021/09/20 07:04:18;;;;;;;3.28;3.13;;;12.30;99.90;;;;;;4918204;29;20227;-72
2021/09/20 07:06:45;;;;;;;5.88;3.85;;;12.30;99.90;;;;;;4918636;29;20207;-73
2021/09/20 07:09:13;;;;;;;3.92;3.60;;;12.30;99.90;;;;;;4917708;29;20626;-73
2021/09/20 07:11:40;;;;;;;3.75;3.55;;;12.40;99.90;;;;;;4916817;29;20230;-70
2021/09/20 07:14:07;;;;;;;3.30;3.10;;;12.40;99.90;;;;;;4908137;29;20254;-73
2021/09/20 07:16:33;;;;;;;5.10;3.73;;;12.50;99.90;;;;;;4917251;29;20647;-73
2021/09/20 07:19:00;;;;;;;2.87;2.67;;;12.50;99.90;;;;;;4917695;29;20463;-72
2021/09/20 07:21:28;;;;;;;4.07;3.33;;;12.60;99.90;;;;;;4917676;29;20557;-72
2021/09/20 07:23:55;;;;;;;3.55;3.35;;;12.60;99.90;;;;;;4916635;29;20294;-73
2021/09/20 07:26:26;;;;;;;3.70;3.40;;;12.60;99.90;;;;;;4917658;29;20266;-72
2021/09/20 07:28:53;;;;;;;3.60;3.40;;;12.60;99.90;;;;;;4915965;29;20525;-72
2021/09/20 07:31:20;;;;;;;5.32;3.80;;;12.70;99.90;;;;;;4916662;29;20319;-71
2021/09/20 07:33:48;;;;;;;3.60;3.50;;;12.60;99.90;;;;;;4917626;29;20258;-73
2021/09/20 07:36:15;;;;;;;4.70;4.40;;;12.70;99.90;;;;;;4917853;29;20506;-73
2021/09/20 07:38:42;;;;;;;3.50;3.30;;;12.70;99.90;;;;;;4917270;29;20833;-73
2021/09/20 07:41:09;;;;;;;4.20;3.90;;;12.70;99.90;;;;;;4917157;29;20577;-72
2021/09/20 07:43:38;;;;;;;3.50;3.30;;;12.70;99.90;;;;;;4916505;29;20901;-73
2021/09/20 07:46:06;;;;;;;4.97;3.33;;;12.80;99.90;;;;;;4916231;29;20257;-70
2021/09/20 07:48:32;;;;;;;3.13;3.00;;;12.80;99.90;;;;;;4917230;29;20525;-70
2021/09/20 07:50:59;;;;;;;2.83;2.73;;;12.90;99.90;;;;;;4916887;29;20550;-70
2021/09/20 07:53:26;;;;;;;3.00;2.90;;;12.80;99.90;;;;;;4917061;29;20518;-70
2021/09/20 07:55:52;;;;;;;2.93;2.73;;;12.90;99.90;;;;;;4907736;29;20561;-71
2021/09/20 07:58:19;;;;;;;2.90;2.80;;;13.00;99.90;;;;;;4916892;29;20619;-71
2021/09/20 08:00:47;;;;;;;3.67;2.63;;;13.00;99.90;;;;;;4910884;29;20832;-71
2021/09/20 08:03:14;;;;;;;2.63;2.43;;;13.00;99.90;;;;;;4915570;29;20506;-75
2021/09/20 08:05:42;;;;;;;2.90;2.80;;;13.00;99.90;;;;;;4917316;29;20462;-71
2021/09/20 08:08:10;;;;;;;3.23;3.03;;;13.00;99.90;;;;;;4916872;29;20473;-69
2021/09/20 08:10:37;;;;;;;2.60;2.40;;;13.00;99.90;;;;;;4916043;29;20502;-70
2021/09/20 08:13:05;;;;;;;4.37;2.77;;;12.90;99.90;;;;;;4917093;29;20469;-71
2021/09/20 08:15:32;;;;;;;3.40;3.07;;;12.90;99.90;;;;;;4916640;29;20459;-71
2021/09/20 08:18:00;;;;;;;3.20;3.00;;;13.00;99.90;;;;;;4916839;29;20466;-71
2021/09/20 08:20:28;;;;;;;3.20;2.67;;;13.00;99.90;;;;;;4914367;29;20537;-71
2021/09/20 08:22:55;;;;;;;3.33;3.10;;;13.10;99.90;;;;;;4915980;29;20549;-71
2021/09/20 08:25:23;;;;;;;2.93;2.50;;;13.10;99.90;;;;;;4916928;29;20510;-71
2021/09/20 08:27:51;;;;;;;2.30;2.20;;;13.20;99.90;;;;;;4915367;29;20470;-72
2021/09/20 08:30:19;;;;;;;3.40;3.20;;;13.30;99.90;;;;;;4909717;29;20954;-71
2021/09/20 08:32:46;;;;;;;3.30;3.20;;;13.30;99.90;;;;;;4906482;29;20470;-71
2021/09/20 08:35:14;;;;;;;6.43;3.30;;;13.40;99.90;;;;;;4915409;29;20482;-73
2021/09/20 08:37:41;;;;;;;2.97;2.77;;;13.50;99.90;;;;;;4914038;29;20554;-73
2021/09/20 08:40:08;;;;;;;2.93;2.83;;;13.50;99.90;;;;;;4916704;29;20466;-73
2021/09/20 08:42:37;;;;;;;3.20;3.00;;;13.60;99.90;;;;;;4915334;29;20531;-73
2021/09/20 08:45:03;;;;;;;3.07;2.87;;;13.60;99.90;;;;;;4915723;29;20490;-74
2021/09/20 08:47:31;;;;;;;3.20;2.87;;;13.70;99.90;;;;;;4915301;29;20927;-71
2021/09/20 08:49:58;;;;;;;2.93;2.83;;;13.80;99.90;;;;;;4915086;29;20486;-71
2021/09/20 08:52:26;;;;;;;2.87;2.70;;;13.90;99.90;;;;;;4916658;29;20486;-73
2021/09/20 08:54:53;;;;;;;3.00;2.80;;;13.90;99.90;;;;;;4914538;29;20478;-73
2021/09/20 08:57:20;;;;;;;2.30;2.20;;;14.00;99.90;;;;;;4912715;29;20546;-72
2021/09/20 08:59:48;;;;;;;2.93;2.80;;;14.00;99.90;;;;;;4914695;29;20478;-73
2021/09/20 09:02:17;;;;;;;2.80;2.60;;;14.10;99.90;;;;;;4914138;29;20565;-73
2021/09/20 09:04:46;;;;;;;2.97;2.77;;;14.10;99.90;;;;;;4915868;29;20498;-72
2021/09/20 09:07:15;;;;;;;3.13;2.70;;;14.20;99.90;;;;;;4914878;29;20530;-73
2021/09/20 09:09:45;;;;;;;2.90;2.70;;;14.30;99.90;;;;;;4912909;29;20890;-72
2021/09/20 09:12:18;;;;;;;2.73;2.60;;;14.30;99.90;;;;;;4914851;29;20501;-73
2021/09/20 09:14:48;;;;;;;3.17;3.07;;;14.50;99.90;;;;;;4915421;29;20829;-72
2021/09/20 09:17:21;;;;;;;2.83;2.73;;;14.50;99.90;;;;;;4913783;29;20919;-73
2021/09/20 09:19:56;;;;;;;2.60;2.50;;;14.50;99.90;;;;;;4914561;29;20481;-73
2021/09/20 09:22:24;;;;;;;2.93;2.73;;;14.50;99.90;;;;;;4913695;29;20574;-73
2021/09/20 09:25:04;;;;;;;2.63;2.53;;;14.70;99.90;;;;;;4915552;29;20502;-72
2021/09/20 09:27:32;;;;;;;2.93;2.50;;;14.80;99.90;;;;;;4915111;29;20470;-72
2021/09/20 09:30:05;;;;;;;3.40;3.10;;;14.70;99.90;;;;;;4913105;29;20470;-72
2021/09/20 09:32:31;;;;;;;3.40;3.10;;;14.80;99.90;;;;;;4915307;29;20872;-71
2021/09/20 09:35:03;;;;;;;3.03;2.83;;;14.90;99.90;;;;;;4916037;29;20815;-72
2021/09/20 09:37:31;;;;;;;3.03;2.93;;;14.80;99.90;;;;;;4912766;29;20522;-71
2021/09/20 09:40:09;;;;;;;2.57;2.43;;;14.80;99.90;;;;;;4907413;29;20546;-73
2021/09/20 09:42:37;;;;;;;2.60;2.60;;;14.90;99.90;;;;;;4916629;29;20474;-74
2021/09/20 09:45:19;;;;;;;3.13;2.47;;;15.10;99.90;;;;;;4930139;29;20598;-73
2021/09/20 09:47:47;;;;;;;3.07;2.83;;;15.30;99.90;;;;;;4916634;29;20595;-72
2021/09/20 09:50:26;;;;;;;2.50;2.50;;;15.20;99.90;;;;;;4914645;29;20470;-71
2021/09/20 09:52:54;;;;;;;4.77;2.73;;;15.30;99.90;;;;;;4914178;29;20578;-72
2021/09/20 09:55:25;;;;;;;2.43;2.20;;;15.30;99.90;;;;;;4915477;29;20470;-72
2021/09/20 09:57:53;;;;;;;2.90;2.70;;;15.30;99.90;;;;;;4913564;29;20577;-71
2021/09/20 10:00:22;;;;;;;2.50;2.30;;;15.30;99.90;;;;;;4911749;29;20474;-72
2021/09/20 10:02:50;;;;;;;2.67;2.57;;;15.30;99.90;;;;;;4915397;29;21009;-72
2021/09/20 10:05:18;;;;;;;3.10;2.90;;;15.40;99.90;;;;;;4915795;29;20829;-71
2021/09/20 10:07:47;;;;;;;2.20;2.10;;;15.50;99.90;;;;;;4916788;29;20466;-71
2021/09/20 10:10:16;;;;;;;2.67;2.57;;;15.60;99.90;;;;;;4914870;29;20474;-71
2021/09/20 10:12:46;;;;;;;2.90;2.70;;;15.60;99.90;;;;;;4914408;29;20474;-71
2021/09/20 10:15:15;;;;;;;2.90;2.70;;;15.80;99.90;;;;;;4915050;29;20828;-71
2021/09/20 10:17:42;;;;;;;2.30;2.20;;;15.90;99.90;;;;;;4907409;29;20474;-71
2021/09/20 10:20:13;;;;;;;2.77;2.57;;;16.10;99.90;;;;;;4918393;29;20482;-71
2021/09/20 10:22:40;;;;;;;2.53;2.40;;;16.00;99.90;;;;;;4919019;29;21021;-71
2021/09/20 10:25:10;;;;;;;2.63;2.37;;;16.00;99.90;;;;;;4918507;29;20518;-71
2021/09/20 10:27:37;;;;;;;2.50;2.40;;;15.90;99.90;;;;;;4918632;29;20953;-71
2021/09/20 10:30:09;;;;;;;2.87;2.50;;;15.90;99.90;;;;;;4917806;29;20474;-71
2021/09/20 10:32:39;;;;;;;2.53;2.43;;;15.90;99.90;;;;;;4917307;29;20522;-71
2021/09/20 10:35:24;;;;;;;2.77;2.57;;;16.00;99.90;;;;;;4917225;29;21069;-71
2021/09/20 10:37:51;;;;;;;3.60;2.30;;;16.10;99.90;;;;;;4918315;29;20494;-71
2021/09/20 10:40:18;;;;;;;3.90;2.40;;;16.20;99.90;;;;;;4917900;29;20474;-71
2021/09/20 10:43:07;;;;;;;3.20;3.10;;;16.20;99.90;;;;;;4918004;29;20477;-71
2021/09/20 10:45:57;;;;;;;2.70;2.57;;;16.20;99.90;;;;;;4918425;29;20573;-71
2021/09/20 10:48:49;;;;;;;2.77;2.63;;;16.20;99.90;;;;;;4899775;29;20467;-71
2021/09/20 10:51:19;;;;;;;3.07;2.80;;;16.40;99.90;;;;;;4916287;29;20490;-70
2021/09/20 10:53:46;;;;;;;2.77;2.50;;;16.40;99.90;;;;;;4918819;29;20525;-70
2021/09/20 10:56:16;;;;;;;2.90;2.80;;;16.50;99.90;;;;;;4917795;29;20470;-71
2021/09/20 10:58:45;;;;;;;2.63;2.40;;;16.40;99.90;;;;;;4917549;29;20490;-70
2021/09/20 11:01:30;;;;;;;2.37;2.27;;;16.40;99.90;;;;;;4913819;29;20596;-72
2021/09/20 11:03:59;;;;;;;2.60;2.20;;;16.40;99.90;;;;;;4918197;29;20497;-72
2021/09/20 11:06:29;;;;;;;2.57;2.43;;;16.30;99.90;;;;;;4913815;29;20466;-71
2021/09/20 11:09:29;;;;;;;2.00;1.90;;;16.30;99.90;;;;;;4917656;29;20470;-71
2021/09/20 11:12:04;;;;;;;2.13;2.10;;;16.30;99.90;;;;;;4917295;29;20494;-71
2021/09/20 11:14:39;;;;;;;2.83;2.63;;;16.40;99.90;;;;;;4918194;29;20516;-71
2021/09/20 11:17:27;;;;;;;2.07;1.97;;;16.40;99.90;;;;;;4915464;29;20954;-71
2021/09/20 11:19:56;;;;;;;2.33;2.33;;;16.40;99.90;;;;;;4916872;29;20931;-71
2021/09/20 11:22:26;;;;;;;2.13;2.03;;;16.50;99.90;;;;;;4916604;29;20566;-70
2021/09/20 11:24:54;;;;;;;2.13;2.10;;;16.50;99.90;;;;;;4918048;29;20490;-70
2021/09/20 11:27:27;;;;;;;2.67;2.57;;;16.60;99.90;;;;;;4917629;29;20471;-70
2021/09/20 11:29:57;;;;;;;2.97;2.80;;;16.60;99.90;;;;;;4916890;29;20478;-70
2021/09/20 11:32:26;;;;;;;2.47;2.30;;;16.70;99.90;;;;;;4915559;29;20907;-69
2021/09/20 11:34:54;;;;;;;2.50;2.40;;;16.50;99.90;;;;;;4917282;29;20463;-69
2021/09/20 11:37:25;;;;;;;2.33;2.23;;;16.30;99.90;;;;;;4914432;29;20470;-73
2021/09/20 11:39:55;;;;;;;1.97;1.97;;;16.30;99.90;;;;;;4904312;29;20880;-70
2021/09/20 11:42:24;;;;;;;2.13;2.03;;;16.40;99.90;;;;;;4930000;29;21027;-70
2021/09/20 11:44:53;;;;;;;2.87;2.23;;;16.40;99.90;;;;;;4936113;29;20512;-73
2021/09/20 11:47:22;;;;;;;2.03;1.93;;;16.40;99.90;;;;;;4921112;29;20506;-69
2021/09/20 11:49:59;;;;;;;2.17;2.00;;;16.50;99.90;;;;;;4916773;29;20562;-70
2021/09/20 11:52:31;;;;;;;2.00;2.00;;;16.50;99.90;;;;;;4916587;29;20490;-69
2021/09/20 11:54:57;;;;;;;2.00;2.00;;;16.60;99.90;;;;;;4917340;29;20565;-69
2021/09/20 11:57:26;;;;;;;1.70;1.70;;;16.70;99.90;;;;;;4916120;29;20533;-69
2021/09/20 11:59:57;;;;;;;2.10;2.00;;;16.70;99.90;;;;;;4914988;29;20884;-70
2021/09/20 12:02:28;;;;;;;2.33;2.23;;;16.80;99.90;;;;;;4916340;29;20578;-72
2021/09/20 12:04:56;;;;;;;1.83;1.83;;;16.90;99.90;;;;;;4916714;29;20494;-70
2021/09/20 12:07:30;;;;;;;2.13;1.97;;;17.20;99.90;;;;;;4916983;29;20474;-70
2021/09/20 12:09:58;;;;;;;2.17;1.90;;;17.30;99.90;;;;;;4914878;29;20474;-70
2021/09/20 12:12:30;;;;;;;2.20;2.10;;;17.60;99.90;;;;;;4915793;29;20822;-70
2021/09/20 12:14:59;;;;;;;3.07;1.87;;;17.60;99.90;;;;;;4916822;29;20462;-71
2021/09/20 12:17:45;;;;;;;1.83;1.83;;;17.80;99.90;;;;;;4909243;29;20533;-71
2021/09/20 12:20:14;;;;;;;2.33;2.33;;;18.10;99.90;;;;;;4916414;29;20526;-70
2021/09/20 12:22:42;;;;;;;2.23;2.03;;;18.10;99.90;;;;;;4916172;29;20474;-71
2021/09/20 12:25:37;;;;;;;1.77;1.77;;;18.20;99.90;;;;;;4916855;29;20490;-71
2021/09/20 12:28:05;;;;;;;2.47;2.37;;;18.20;99.90;;;;;;4898078;29;20467;-71
2021/09/20 12:30:34;;;;;;;2.17;2.07;;;18.10;99.90;;;;;;4906379;29;21002;-70
2021/09/20 12:33:10;;;;;;;1.97;1.87;;;18.00;99.90;;;;;;4915468;29;20594;-71
2021/09/20 12:35:39;;;;;;;2.10;2.10;;;17.90;99.90;;;;;;4916510;29;20525;-70
2021/09/20 12:38:26;;;;;;;2.20;2.10;;;17.60;99.90;;;;;;4916005;29;20470;-70
2021/09/20 12:40:54;;;;;;;2.33;2.30;;;17.60;99.90;;;;;;4914578;29;20577;-70
2021/09/20 12:43:27;;;;;;;2.70;2.60;;;17.70;99.90;;;;;;4915610;29;20471;-70
2021/09/20 12:45:54;;;;;;;2.10;2.10;;;17.70;99.90;;;;;;4916556;29;20850;-70
2021/09/20 12:48:33;;;;;;;2.10;2.00;;;17.80;99.90;;;;;;4915513;29;20557;-69
2021/09/20 12:51:04;;;;;;;2.83;2.03;;;17.50;99.90;;;;;;4915749;29;20497;-69
2021/09/20 12:53:33;;;;;;;3.00;2.70;;;17.10;99.90;;;;;;4916398;29;20518;-70
2021/09/20 12:56:00;;;;;;;2.13;2.03;;;17.00;99.90;;;;;;4915636;29;20475;-69
2021/09/20 12:58:30;;;;;;;2.20;2.10;;;16.90;99.90;;;;;;4916560;29;20529;-70
2021/09/20 13:00:58;;;;;;;1.90;1.90;;;16.80;99.90;;;;;;4913188;29;20507;-71
2021/09/20 13:03:32;;;;;;;2.17;2.07;;;16.80;99.90;;;;;;4915621;29;20474;-70
2021/09/20 13:06:02;;;;;;;1.80;1.80;;;16.90;99.90;;;;;;4908678;29;20487;-70
2021/09/20 13:08:30;;;;;;;2.73;2.63;;;17.10;99.90;;;;;;4911404;29;20952;-70
2021/09/20 13:11:13;;;;;;;2.67;2.57;;;17.40;99.90;;;;;;4915517;29;20494;-70
2021/09/20 13:13:42;;;;;;;2.73;2.63;;;17.40;99.90;;;;;;4915786;29;20489;-71
2021/09/20 13:16:09;;;;;;;3.33;2.80;;;17.30;99.90;;;;;;4913952;29;20811;-70
2021/09/20 13:18:37;;;;;;;2.83;2.50;;;17.20;99.90;;;;;;4915260;29;20479;-70
2021/09/20 13:21:19;;;;;;;2.93;2.83;;;17.20;99.90;;;;;;4915392;29;20498;-69
2021/09/20 13:23:48;;;;;;;2.80;2.60;;;17.20;99.90;;;;;;4915131;29;21012;-70
2021/09/20 13:26:15;;;;;;;4.57;3.23;;;17.20;99.90;;;;;;4916178;29;20494;-70
2021/09/20 13:28:44;;;;;;;3.50;3.30;;;17.20;99.90;;;;;;4915471;29;20557;-70
2021/09/20 13:31:14;;;;;;;3.00;2.90;;;17.20;99.90;;;;;;4913381;29;20490;-70
2021/09/20 13:33:41;;;;;;;3.07;2.90;;;17.10;99.90;;;;;;4915259;29;20478;-69
2021/09/20 13:36:10;;;;;;;3.80;3.20;;;17.10;99.90;;;;;;4916112;29;20525;-70
2021/09/20 13:38:39;;;;;;;3.10;2.90;;;17.10;99.90;;;;;;4906349;29;20510;-71
2021/09/20 13:41:11;;;;;;;3.10;2.90;;;17.10;99.90;;;;;;4914539;29;20498;-70
2021/09/20 13:43:39;;;;;;;2.83;2.63;;;17.00;99.90;;;;;;4915503;29;20470;-70
2021/09/20 13:46:07;;;;;;;3.73;3.40;;;17.00;99.90;;;;;;4914111;29;20644;-70
2021/09/20 13:48:34;;;;;;;2.67;2.57;;;17.00;99.90;;;;;;4916101;29;20467;-71
2021/09/20 13:51:01;;;;;;;3.07;2.93;;;17.00;99.90;;;;;;4915024;29;20491;-71
2021/09/20 13:53:27;;;;;;;3.00;2.90;;;16.90;99.90;;;;;;4914139;29;20493;-71
2021/09/20 13:55:54;;;;;;;2.93;2.83;;;16.90;99.90;;;;;;4914875;29;20892;-70
2021/09/20 13:58:22;;;;;;;3.40;3.10;;;16.90;99.90;;;;;;4915387;29;20474;-70
2021/09/20 14:00:50;;;;;;;2.83;2.73;;;16.90;99.90;;;;;;4912568;29;20577;-70
2021/09/20 14:03:17;;;;;;;3.13;2.93;;;16.90;99.90;;;;;;4915508;29;20466;-71
2021/09/20 14:05:45;;;;;;;2.70;2.60;;;16.80;99.90;;;;;;4915636;29;20490;-70
2021/09/20 14:08:13;;;;;;;2.70;2.60;;;16.70;99.90;;;;;;4915750;29;20474;-70
2021/09/20 14:10:41;;;;;;;3.40;3.27;;;16.70;99.90;;;;;;4913977;29;20545;-69
2021/09/20 14:13:08;;;;;;;3.13;2.83;;;16.70;99.90;;;;;;4915375;29;20803;-69
2021/09/20 14:15:38;;;;;;;3.00;2.60;;;16.80;99.90;;;;;;4915437;29;20547;-70
2021/09/20 14:18:04;;;;;;;4.07;3.50;;;16.80;99.90;;;;;;4900562;29;20471;-69
2021/09/20 14:20:31;;;;;;;3.70;3.40;;;16.80;99.90;;;;;;4915045;29;20573;-69
2021/09/20 14:22:59;;;;;;;3.33;3.13;;;16.70;99.90;;;;;;4914936;29;20470;-69
2021/09/20 14:25:28;;;;;;;4.47;4.03;;;16.60;99.90;;;;;;4915212;29;20573;-69
2021/09/20 14:27:55;;;;;;;4.47;4.17;;;16.50;99.90;;;;;;4914799;29;20578;-69
2021/09/20 14:30:22;;;;;;;3.50;3.40;;;16.40;99.90;;;;;;4913085;29;20479;-70
2021/09/20 14:32:50;;;;;;;3.30;3.20;;;16.40;99.90;;;;;;4914090;29;20874;-69
2021/09/20 14:35:18;;;;;;;3.37;3.17;;;16.40;99.90;;;;;;4915493;29;20557;-70
2021/09/20 14:37:45;;;;;;;3.67;3.57;;;16.40;99.90;;;;;;4913698;29;20533;-69
2021/09/20 14:40:15;;;;;;;3.20;3.00;;;16.40;99.90;;;;;;4914145;29;20502;-69
2021/09/20 14:42:42;;;;;;;5.20;4.30;;;16.30;99.90;;;;;;4914928;29;20831;-70
2021/09/20 14:45:12;;;;;;;6.87;5.60;;;16.00;99.90;;;;;;4914070;29;20538;-72
2021/09/20 14:47:39;;;;;;;3.67;3.37;;;15.80;99.90;;;;;;4913557;29;21046;-70
2021/09/20 14:50:10;;;;;;;3.93;3.73;;;15.70;99.90;;;;;;4913899;29;20530;-70
2021/09/20 14:52:37;;;;;;;4.70;4.40;;;15.70;99.90;;;;;;4913607;29;20498;-71
2021/09/20 14:55:05;;;;;;;7.13;6.43;;;15.40;99.90;;;;;;4912468;29;20525;-70
2021/09/20 14:57:31;;;;;;;9.57;7.33;;;15.50;99.90;;;;;;4913242;29;20550;-70
2021/09/20 14:59:58;;;;;;;4.63;4.10;;;15.50;99.90;;;;;;4913067;29;20581;-70
2021/09/20 15:02:26;;;;;;;3.97;3.67;;;15.40;99.90;;;;;;4913213;29;20506;-70
2021/09/20 15:04:53;;;;;;;6.60;6.00;;;15.40;99.90;;;;;;4914451;29;20474;-69
2021/09/20 15:07:21;;;;;;;4.43;4.13;;;15.40;99.90;;;;;;4916048;29;20470;-70
2021/09/20 15:09:48;;;;;;;4.50;4.20;;;15.40;99.90;;;;;;4917002;29;20856;-69
2021/09/20 15:12:15;;;;;;;5.00;3.87;;;15.40;99.90;;;;;;4915536;29;20526;-71
2021/09/20 15:14:41;;;;;;;3.60;3.40;;;15.40;99.90;;;;;;4917049;29;20467;-71
2021/09/20 15:17:08;;;;;;;3.00;2.90;;;15.30;99.90;;;;;;4916898;29;20482;-69
2021/09/20 15:19:34;;;;;;;2.93;2.83;;;15.30;99.90;;;;;;4917102;29;20458;-70
2021/09/20 15:22:01;;;;;;;3.17;3.07;;;15.20;99.90;;;;;;4917508;29;20548;-70
2021/09/20 15:24:29;;;;;;;2.63;2.53;;;15.10;99.90;;;;;;4908877;29;20467;-70
2021/09/20 15:26:58;;;;;;;2.90;2.63;;;15.10;99.90;;;;;;4917827;29;20486;-70
2021/09/20 15:29:25;;;;;;;2.50;2.33;;;15.10;99.90;;;;;;4919284;29;20565;-70
2021/09/20 15:31:52;;;;;;;3.27;2.93;;;15.20;99.90;;;;;;4917398;29;20488;-70
2021/09/20 15:34:19;;;;;;;3.17;2.97;;;15.20;99.90;;;;;;4918699;29;20501;-70
2021/09/20 15:36:46;;;;;;;2.33;2.33;;;15.10;99.90;;;;;;4918166;29;20471;-69
2021/09/20 15:39:12;;;;;;;3.00;2.73;;;15.10;99.90;;;;;;4901660;29;20471;-69
2021/09/20 15:41:41;;;;;;;2.90;2.80;;;15.10;99.90;;;;;;4902212;29;20593;-70
2021/09/20 15:44:07;;;;;;;2.77;2.67;;;15.00;99.90;;;;;;4917767;29;20482;-69
2021/09/20 15:46:34;;;;;;;2.80;2.70;;;15.00;99.90;;;;;;4916337;29;20487;-70
2021/09/20 15:49:01;;;;;;;3.53;3.33;;;15.00;99.90;;;;;;4917622;29;20469;-70
2021/09/20 15:51:27;;;;;;;3.40;3.13;;;14.90;99.90;;;;;;4916907;29;21017;-70
2021/09/20 15:53:54;;;;;;;2.77;2.50;;;14.80;99.90;;;;;;4916579;29;22123;-71
2021/09/20 15:56:21;;;;;;;3.63;3.23;;;14.80;99.90;;;;;;4917654;29;20466;-69
2021/09/20 15:58:49;;;;;;;3.50;3.30;;;14.70;99.90;;;;;;4916379;29;20475;-70
2021/09/20 16:01:16;;;;;;;3.33;3.23;;;14.70;99.90;;;;;;4915806;29;20494;-70
2021/09/20 16:03:42;;;;;;;3.00;2.90;;;14.70;99.90;;;;;;4912673;29;20474;-71
2021/09/20 16:06:10;;;;;;;3.80;3.50;;;14.70;99.90;;;;;;4916445;29;20579;-70
2021/09/20 16:08:39;;;;;;;4.50;4.30;;;14.70;99.90;;;;;;4916768;29;20546;-70
2021/09/20 16:11:06;;;;;;;3.37;3.17;;;14.70;99.90;;;;;;4916522;29;20570;-72
2021/09/20 16:13:32;;;;;;;3.50;3.20;;;14.70;99.90;;;;;;4916957;29;20530;-71
2021/09/20 16:16:01;;;;;;;3.33;3.23;;;14.70;99.90;;;;;;4913887;29;20545;-71
2021/09/20 16:18:28;;;;;;;4.20;3.50;;;14.70;99.90;;;;;;4916121;29;20569;-71
2021/09/20 16:20:55;;;;;;;13.13;5.47;;;14.70;99.90;;;;;;4916854;29;20490;-71
2021/09/20 16:23:23;;;;;;;10.83;4.90;;;14.70;99.90;;;;;;4916589;29;20467;-71
2021/09/20 16:25:50;;;;;;;8.57;5.17;;;14.60;99.90;;;;;;4916724;29;20927;-72
2021/09/20 16:28:16;;;;;;;4.40;4.00;;;14.50;99.90;;;;;;4916419;29;20522;-72
2021/09/20 16:30:43;;;;;;;5.20;4.70;;;14.50;99.90;;;;;;4916064;29;21221;-70
2021/09/20 16:33:11;;;;;;;6.40;5.13;;;14.40;99.90;;;;;;4916386;29;20541;-72
2021/09/20 16:35:38;;;;;;;6.50;4.50;;;14.40;99.90;;;;;;4916677;29;20462;-72
2021/09/20 16:38:06;;;;;;;5.10;4.67;;;14.40;99.90;;;;;;4916301;29;20474;-72
2021/09/20 16:40:33;;;;;;;4.03;3.63;;;14.40;99.90;;;;;;4916596;29;20482;-72
2021/09/20 16:43:00;;;;;;;3.43;3.20;;;14.40;99.90;;;;;;4916156;29;20478;-72
2021/09/20 16:45:27;;;;;;;5.07;4.40;;;14.20;99.90;;;;;;4915994;29;21019;-72
2021/09/20 16:47:54;;;;;;;6.53;4.30;;;14.20;99.90;;;;;;4916062;29;20478;-72
2021/09/20 16:50:22;;;;;;;5.53;4.90;;;14.10;99.90;;;;;;4916514;29;20529;-69
2021/09/20 16:52:49;;;;;;;8.30;3.77;;;14.10;99.90;;;;;;4915971;29;20489;-72
2021/09/20 16:55:15;;;;;;;3.00;2.90;;;14.10;99.90;;;;;;4916180;29;20462;-71